Time;durP1;ratioP1;P1;durP2;ratioP2;P2;SDS_P1;SDS_P2;PMS_P1;PMS_P2;Temp;Humidity;BMP_temperature;BMP_pressure;BME280_temperature;BME280_humidity;BME280_pressure;Samples;Min_cycle;Max_cycle;Signal;HPM_P1;HPM_P2
2022/07/29 00:00:00;;;;;;;4.47;1.33;;;15.50;99.90;;;;;;4983441;28;20046;-51
2022/07/29 00:02:27;;;;;;;4.20;1.33;;;15.50;99.90;;;;;;4981623;28;20046;-47
2022/07/29 00:04:53;;;;;;;3.33;1.60;;;15.40;99.90;;;;;;4983058;28;20065;-47
2022/07/29 00:07:18;;;;;;;3.00;1.50;;;15.30;99.90;;;;;;4990769;28;20084;-49
2022/07/29 00:09:44;;;;;;;4.13;1.40;;;15.10;99.90;;;;;;4997792;28;20055;-50
2022/07/29 00:12:10;;;;;;;2.65;1.40;;;15.00;99.90;;;;;;4983112;28;20042;-48
2022/07/29 00:14:35;;;;;;;3.85;1.80;;;14.90;99.90;;;;;;4981696;28;20046;-50
2022/07/29 00:17:01;;;;;;;6.53;1.73;;;14.80;99.90;;;;;;4983163;28;20144;-50
2022/07/29 00:19:27;;;;;;;3.17;1.77;;;14.80;99.90;;;;;;4980535;28;20425;-48
2022/07/29 00:21:52;;;;;;;2.50;1.55;;;14.90;99.90;;;;;;4982324;28;20046;-51
2022/07/29 00:24:18;;;;;;;3.85;1.70;;;14.90;99.90;;;;;;4982318;28;20046;-54
2022/07/29 00:26:43;;;;;;;3.28;1.70;;;14.90;99.90;;;;;;4983472;28;20053;-49
2022/07/29 00:29:09;;;;;;;5.00;2.00;;;15.00;99.90;;;;;;4982261;28;20046;-50
2022/07/29 00:31:35;;;;;;;3.72;1.67;;;15.10;99.90;;;;;;4982606;28;20328;-51
2022/07/29 00:34:00;;;;;;;2.53;1.45;;;15.10;99.90;;;;;;4982460;28;20630;-48
2022/07/29 00:36:26;;;;;;;3.70;1.92;;;15.00;99.90;;;;;;4981699;28;20368;-48
2022/07/29 00:38:52;;;;;;;4.82;1.70;;;15.00;99.90;;;;;;4982011;28;20099;-51
2022/07/29 00:41:18;;;;;;;4.13;1.52;;;15.00;99.90;;;;;;4982131;28;20129;-51
2022/07/29 00:43:44;;;;;;;3.58;1.70;;;15.10;99.90;;;;;;4981582;28;20074;-49
2022/07/29 00:46:10;;;;;;;3.25;1.63;;;15.20;99.90;;;;;;4982426;28;20045;-48
2022/07/29 00:48:37;;;;;;;4.93;1.48;;;15.10;99.90;;;;;;4980324;28;20604;-49
2022/07/29 00:51:04;;;;;;;3.15;1.55;;;15.10;99.90;;;;;;4981662;28;20041;-52
2022/07/29 00:53:30;;;;;;;4.05;1.67;;;15.10;99.90;;;;;;4981786;28;20327;-51
2022/07/29 00:55:57;;;;;;;2.63;1.50;;;15.10;99.90;;;;;;4982397;28;20690;-50
2022/07/29 00:58:23;;;;;;;5.25;1.65;;;15.10;99.90;;;;;;4981663;28;20096;-48
2022/07/29 01:00:49;;;;;;;4.20;1.73;;;15.10;99.90;;;;;;4981574;28;20083;-51
2022/07/29 01:03:15;;;;;;;3.53;1.60;;;15.10;99.90;;;;;;4982145;28;20126;-51
2022/07/29 01:05:42;;;;;;;2.63;1.38;;;15.20;99.90;;;;;;4981703;28;20061;-48
2022/07/29 01:08:10;;;;;;;5.20;1.80;;;15.10;99.90;;;;;;4989766;28;20062;-50
2022/07/29 01:10:39;;;;;;;3.15;1.30;;;15.10;99.90;;;;;;4980679;28;20054;-47
2022/07/29 01:13:05;;;;;;;4.43;1.83;;;15.10;99.90;;;;;;4981864;28;20066;-48
2022/07/29 01:15:32;;;;;;;5.22;1.60;;;15.10;99.90;;;;;;4980846;28;20042;-48
2022/07/29 01:18:14;;;;;;;5.47;1.52;;;15.10;99.90;;;;;;4981980;28;20057;-48
2022/07/29 01:20:49;;;;;;;3.75;1.65;;;15.10;99.90;;;;;;4981671;28;20034;-49
2022/07/29 01:23:18;;;;;;;3.70;1.65;;;15.10;99.90;;;;;;4981969;28;20047;-50
2022/07/29 01:25:58;;;;;;;3.78;1.52;;;15.10;99.90;;;;;;4982288;28;20037;-47
2022/07/29 01:28:33;;;;;;;3.80;1.60;;;15.10;99.90;;;;;;4980050;28;20042;-48
2022/07/29 01:31:00;;;;;;;;;;;15.20;99.90;;;;;;4982075;28;20054;-52
2022/07/29 01:36:17;;;;;;;4.43;1.70;;;15.10;99.90;;;;;;4981378;28;20410;-52
2022/07/29 01:38:47;;;;;;;3.63;1.38;;;15.10;99.90;;;;;;4982315;28;20050;-50
2022/07/29 01:41:17;;;;;;;4.88;1.70;;;15.20;99.90;;;;;;4981555;28;20074;-50
2022/07/29 01:43:56;;;;;;;2.05;1.40;;;15.20;99.90;;;;;;4981881;28;20069;-50
2022/07/29 01:46:27;;;;;;;3.65;1.45;;;15.20;99.90;;;;;;4980890;28;20667;-49
2022/07/29 01:49:19;;;;;;;4.93;1.67;;;15.20;99.90;;;;;;4980877;28;20096;-51
2022/07/29 01:52:15;;;;;;;5.15;1.67;;;15.20;99.90;;;;;;4981105;28;20099;-52
2022/07/29 01:54:51;;;;;;;3.78;1.58;;;15.20;99.90;;;;;;4980582;28;20089;-51
2022/07/29 01:57:19;;;;;;;4.03;1.65;;;15.20;99.90;;;;;;4981077;28;20046;-52
2022/07/29 01:59:47;;;;;;;3.25;1.40;;;15.20;99.90;;;;;;4981257;28;20405;-53
2022/07/29 02:02:16;;;;;;;3.55;1.40;;;15.30;99.90;;;;;;4981144;28;20050;-51
2022/07/29 02:04:44;;;;;;;3.38;1.52;;;15.30;99.90;;;;;;4981842;28;20405;-51
2022/07/29 02:07:15;;;;;;;2.60;1.40;;;15.40;99.90;;;;;;4987142;28;20053;-51
2022/07/29 02:09:42;;;;;;;3.65;1.63;;;15.30;99.90;;;;;;4983799;28;20053;-49
2022/07/29 02:12:10;;;;;;;3.75;1.30;;;15.40;99.90;;;;;;4981201;28;20043;-49
2022/07/29 02:14:50;;;;;;;4.80;1.50;;;15.40;99.90;;;;;;4980427;28;20085;-53
2022/07/29 02:17:27;;;;;;;4.93;1.55;;;15.30;99.90;;;;;;4980818;28;20516;-56
2022/07/29 02:19:59;;;;;;;6.72;1.95;;;15.30;99.90;;;;;;4981322;28;20073;-51
2022/07/29 02:22:29;;;;;;;2.92;1.58;;;15.30;99.90;;;;;;4979396;28;20053;-49
2022/07/29 02:24:56;;;;;;;4.13;1.67;;;15.30;99.90;;;;;;4981240;28;20050;-48
2022/07/29 02:27:23;;;;;;;3.40;1.40;;;15.20;99.90;;;;;;4980648;28;20570;-48
2022/07/29 02:29:49;;;;;;;3.22;1.80;;;15.30;99.90;;;;;;4980690;28;20046;-51
2022/07/29 02:32:17;;;;;;;3.35;1.60;;;15.20;99.90;;;;;;4981240;28;20136;-53
2022/07/29 02:34:44;;;;;;;5.22;1.90;;;15.60;99.90;;;;;;4981320;28;20042;-48
2022/07/29 02:37:11;;;;;;;4.65;2.00;;;15.20;99.90;;;;;;4980289;28;20046;-51
2022/07/29 02:39:39;;;;;;;4.45;1.60;;;15.20;99.90;;;;;;4978774;28;20120;-48
2022/07/29 02:42:09;;;;;;;8.07;2.00;;;15.20;99.90;;;;;;4979320;28;20042;-48
2022/07/29 02:44:36;;;;;;;3.65;1.50;;;15.20;99.90;;;;;;4980579;28;20248;-48
2022/07/29 02:47:20;;;;;;;4.30;1.95;;;15.20;99.90;;;;;;4980226;28;20471;-47
2022/07/29 02:49:53;;;;;;;4.03;1.50;;;15.20;99.90;;;;;;4980860;28;20078;-57
2022/07/29 02:52:27;;;;;;;5.40;1.70;;;15.20;99.90;;;;;;4979599;28;20469;-49
2022/07/29 02:55:12;;;;;;;3.67;1.60;;;15.10;99.90;;;;;;4980908;28;20058;-49
2022/07/29 02:57:40;;;;;;;;;;;15.20;99.90;;;;;;4981312;28;20143;-50
2022/07/29 03:00:08;;;;;;;4.07;1.63;;;15.20;99.90;;;;;;4979867;28;20384;-47
2022/07/29 03:02:37;;;;;;;3.42;1.60;;;15.10;99.90;;;;;;4980311;28;20048;-47
2022/07/29 03:05:06;;;;;;;6.82;1.95;;;15.10;99.90;;;;;;4980767;28;20513;-51
2022/07/29 03:07:34;;;;;;;7.15;1.65;;;15.10;99.90;;;;;;4989408;28;20424;-49
2022/07/29 03:10:00;;;;;;;4.15;1.55;;;15.10;99.90;;;;;;4980653;28;20476;-48
2022/07/29 03:12:26;;;;;;;4.63;1.65;;;15.10;99.90;;;;;;4980027;28;20046;-51
2022/07/29 03:14:54;;;;;;;4.53;1.58;;;15.00;99.90;;;;;;4980581;28;20043;-48
2022/07/29 03:17:20;;;;;;;3.35;1.48;;;15.00;99.90;;;;;;4979334;28;20053;-49
2022/07/29 03:19:46;;;;;;;3.85;1.63;;;15.00;99.90;;;;;;4980967;28;20109;-49
2022/07/29 03:22:12;;;;;;;4.05;2.00;;;15.00;99.90;;;;;;4980216;28;20125;-51
2022/07/29 03:24:38;;;;;;;4.80;1.90;;;15.00;99.90;;;;;;4982531;28;20070;-47
2022/07/29 03:27:04;;;;;;;4.25;1.67;;;15.00;99.90;;;;;;4982312;28;20082;-49
2022/07/29 03:29:31;;;;;;;4.40;1.52;;;15.00;99.90;;;;;;4983281;28;20529;-48
2022/07/29 03:31:57;;;;;;;4.00;1.73;;;15.00;99.90;;;;;;4983803;28;20046;-47
2022/07/29 03:34:22;;;;;;;6.03;2.20;;;15.00;99.90;;;;;;4965922;28;20053;-49
2022/07/29 03:36:48;;;;;;;2.67;1.55;;;15.00;99.90;;;;;;4982757;28;20038;-50
2022/07/29 03:39:19;;;;;;;5.30;1.90;;;15.00;99.90;;;;;;4982594;28;20109;-47
2022/07/29 03:41:46;;;;;;;5.20;1.58;;;15.00;99.90;;;;;;4984010;28;20441;-49
2022/07/29 03:44:13;;;;;;;5.85;2.10;;;15.00;99.90;;;;;;4983116;28;20050;-51
2022/07/29 03:46:39;;;;;;;4.10;1.50;;;15.00;99.90;;;;;;4982053;28;20053;-50
2022/07/29 03:49:08;;;;;;;4.95;1.70;;;15.00;99.90;;;;;;4983846;28;20046;-51
2022/07/29 03:51:34;;;;;;;3.45;1.52;;;15.00;99.90;;;;;;4981222;28;20552;-52
2022/07/29 03:54:04;;;;;;;9.18;2.08;;;15.00;99.90;;;;;;4981567;28;20098;-47
2022/07/29 03:56:32;;;;;;;5.53;1.83;;;15.00;99.90;;;;;;4983156;28;20138;-52
2022/07/29 03:58:58;;;;;;;6.85;2.03;;;15.00;99.90;;;;;;4983442;28;20080;-49
2022/07/29 04:01:26;;;;;;;3.15;1.45;;;15.00;99.90;;;;;;4982478;28;20045;-52
2022/07/29 04:03:52;;;;;;;4.55;1.65;;;14.90;99.90;;;;;;4983095;28;20160;-49
2022/07/29 04:06:17;;;;;;;5.78;2.13;;;15.10;99.90;;;;;;4984327;28;20065;-48
2022/07/29 04:08:43;;;;;;;3.65;1.65;;;15.00;99.90;;;;;;4992422;28;20038;-49
2022/07/29 04:11:09;;;;;;;4.65;2.00;;;15.00;99.90;;;;;;4981209;28;20054;-48
2022/07/29 04:13:35;;;;;;;4.30;1.98;;;15.00;99.90;;;;;;4982943;28;20075;-48
2022/07/29 04:16:00;;;;;;;3.97;1.60;;;15.00;99.90;;;;;;4983556;28;20119;-49
2022/07/29 04:18:26;;;;;;;4.45;2.00;;;15.00;99.90;;;;;;4982852;28;20553;-55
2022/07/29 04:20:52;;;;;;;7.25;1.92;;;15.00;99.90;;;;;;4981784;28;20077;-51
2022/07/29 04:23:18;;;;;;;5.40;2.03;;;15.00;99.90;;;;;;4981296;28;20090;-50
2022/07/29 04:25:43;;;;;;;5.82;1.83;;;14.90;99.90;;;;;;4983630;28;20049;-48
2022/07/29 04:28:10;;;;;;;6.18;2.20;;;14.90;99.90;;;;;;4982558;28;20729;-48
2022/07/29 04:30:37;;;;;;;5.80;1.80;;;14.90;99.90;;;;;;4982166;28;20211;-49
2022/07/29 04:33:05;;;;;;;3.67;1.70;;;15.00;99.90;;;;;;4981490;28;20523;-48
2022/07/29 04:35:33;;;;;;;3.65;1.63;;;14.90;99.90;;;;;;4980746;28;20093;-51
2022/07/29 04:37:58;;;;;;;3.67;2.22;;;15.00;99.90;;;;;;4982845;28;20065;-51
2022/07/29 04:40:24;;;;;;;5.10;1.80;;;14.90;99.90;;;;;;4981927;28;20510;-48
2022/07/29 04:42:50;;;;;;;5.20;1.90;;;14.90;99.90;;;;;;4982125;28;20173;-50
2022/07/29 04:45:15;;;;;;;4.22;1.70;;;14.90;99.90;;;;;;4982424;28;20069;-56
2022/07/29 04:47:41;;;;;;;5.70;1.67;;;15.00;99.90;;;;;;4995733;28;20076;-52
2022/07/29 04:50:08;;;;;;;8.02;2.70;;;15.00;99.90;;;;;;5001484;28;20077;-52
2022/07/29 04:52:35;;;;;;;6.20;1.95;;;15.00;99.90;;;;;;5000877;28;20502;-48
2022/07/29 04:55:01;;;;;;;4.78;1.83;;;15.00;99.90;;;;;;5001600;28;20085;-47
2022/07/29 04:57:27;;;;;;;4.90;1.90;;;15.00;99.90;;;;;;5000749;28;20049;-49
2022/07/29 04:59:52;;;;;;;8.05;1.92;;;15.00;99.90;;;;;;5001910;28;20053;-48
2022/07/29 05:02:18;;;;;;;5.45;1.98;;;15.00;99.90;;;;;;5001209;28;20053;-48
2022/07/29 05:04:44;;;;;;;3.72;1.85;;;14.90;99.90;;;;;;5002304;28;20100;-48
2022/07/29 05:07:09;;;;;;;6.35;2.25;;;14.80;99.90;;;;;;4993851;28;20061;-49
2022/07/29 05:09:35;;;;;;;4.85;1.90;;;14.90;99.90;;;;;;4985055;28;20336;-47
2022/07/29 05:12:01;;;;;;;4.35;1.70;;;15.00;99.90;;;;;;4981994;28;20156;-52
2022/07/29 05:14:27;;;;;;;4.07;1.98;;;15.00;99.90;;;;;;4981734;28;20058;-48
2022/07/29 05:16:56;;;;;;;5.47;1.90;;;15.10;99.90;;;;;;4981637;28;20113;-49
2022/07/29 05:19:22;;;;;;;4.43;1.60;;;15.00;99.90;;;;;;4981457;28;20050;-48
2022/07/29 05:21:49;;;;;;;4.53;1.67;;;15.00;99.90;;;;;;4981536;28;20074;-51
2022/07/29 05:24:16;;;;;;;4.97;1.98;;;15.00;99.90;;;;;;4982035;28;20053;-49
2022/07/29 05:26:42;;;;;;;5.93;1.90;;;15.10;99.90;;;;;;4981826;28;20038;-51
2022/07/29 05:29:08;;;;;;;4.60;1.70;;;15.10;99.90;;;;;;4982137;28;20145;-49
2022/07/29 05:31:33;;;;;;;6.65;1.90;;;15.20;99.90;;;;;;4981526;28;20121;-48
2022/07/29 05:34:00;;;;;;;5.45;1.77;;;15.30;99.90;;;;;;4981754;28;20093;-50
2022/07/29 05:36:25;;;;;;;4.65;2.08;;;15.30;99.90;;;;;;4980039;28;20109;-52
2022/07/29 05:38:51;;;;;;;5.78;2.05;;;15.40;99.90;;;;;;4981966;28;20046;-48
2022/07/29 05:41:18;;;;;;;7.05;1.95;;;15.50;99.90;;;;;;4980579;28;20050;-48
2022/07/29 05:43:44;;;;;;;4.05;1.90;;;15.50;99.90;;;;;;4981838;28;20109;-49
2022/07/29 05:46:09;;;;;;;5.70;1.70;;;15.60;99.90;;;;;;4980865;28;20043;-51
2022/07/29 05:48:35;;;;;;;4.82;1.98;;;15.70;99.90;;;;;;4981314;28;20271;-51
2022/07/29 05:51:01;;;;;;;5.72;1.92;;;15.80;99.90;;;;;;4980936;28;20994;-50
2022/07/29 05:53:27;;;;;;;4.90;2.05;;;15.70;99.90;;;;;;4980642;28;20413;-50
2022/07/29 05:55:53;;;;;;;3.97;1.90;;;15.80;99.90;;;;;;4981280;28;20046;-50
2022/07/29 05:58:19;;;;;;;3.13;2.00;;;15.80;99.90;;;;;;4981078;28;20046;-50
2022/07/29 06:00:45;;;;;;;4.57;2.30;;;15.70;99.90;;;;;;4981745;28;20097;-48
2022/07/29 06:03:11;;;;;;;2.45;1.70;;;15.80;99.90;;;;;;4980822;28;20088;-51
2022/07/29 06:05:37;;;;;;;5.43;1.90;;;15.80;99.90;;;;;;4979360;28;20065;-49
2022/07/29 06:08:05;;;;;;;5.18;2.35;;;15.90;99.90;;;;;;4991581;28;20068;-48
2022/07/29 06:10:31;;;;;;;6.70;2.05;;;15.70;99.90;;;;;;4980913;28;20058;-52
2022/07/29 06:12:56;;;;;;;3.42;1.80;;;15.90;99.90;;;;;;4980665;28;20569;-49
2022/07/29 06:15:22;;;;;;;6.22;2.30;;;15.80;99.90;;;;;;4980501;28;20046;-51
2022/07/29 06:17:48;;;;;;;6.93;2.05;;;15.90;99.90;;;;;;4981450;28;20039;-47
2022/07/29 06:20:13;;;;;;;5.13;1.85;;;15.80;99.90;;;;;;4980698;28;20050;-47
2022/07/29 06:22:39;;;;;;;5.43;2.22;;;15.80;99.90;;;;;;4980205;28;20081;-50
2022/07/29 06:25:06;;;;;;;3.92;1.90;;;15.90;99.90;;;;;;4981110;28;20493;-48
2022/07/29 06:27:31;;;;;;;5.82;2.13;;;15.90;99.90;;;;;;4979084;28;20060;-51
2022/07/29 06:29:57;;;;;;;3.80;2.05;;;15.90;99.90;;;;;;4980946;28;20132;-49
2022/07/29 06:32:23;;;;;;;6.45;1.92;;;16.00;99.90;;;;;;4980045;28;20697;-51
2022/07/29 06:34:48;;;;;;;4.38;2.00;;;15.90;99.90;;;;;;4979606;28;20050;-47
2022/07/29 06:37:14;;;;;;;6.35;1.90;;;15.90;99.90;;;;;;4980421;28;20176;-47
2022/07/29 06:39:40;;;;;;;4.78;2.00;;;15.90;99.90;;;;;;4980940;28;20042;-48
2022/07/29 06:42:05;;;;;;;4.93;1.75;;;16.00;99.90;;;;;;4979798;28;20140;-51
2022/07/29 06:44:33;;;;;;;8.98;2.30;;;16.00;99.90;;;;;;4980594;28;20054;-48
2022/07/29 06:47:00;;;;;;;5.20;2.13;;;16.10;99.90;;;;;;4980985;28;20042;-48
2022/07/29 06:49:26;;;;;;;7.50;1.95;;;16.20;99.90;;;;;;4980778;28;20038;-51
2022/07/29 06:51:52;;;;;;;5.22;1.95;;;16.20;99.90;;;;;;4977996;28;20045;-51
2022/07/29 06:54:18;;;;;;;5.50;1.92;;;16.20;99.90;;;;;;4980221;28;20078;-51
2022/07/29 06:56:43;;;;;;;4.28;2.13;;;16.20;99.90;;;;;;4981089;28;20155;-51
2022/07/29 06:59:10;;;;;;;5.18;1.80;;;16.20;99.90;;;;;;4983650;28;20054;-49
2022/07/29 07:01:37;;;;;;;3.38;2.08;;;16.30;99.90;;;;;;4984295;28;20081;-47
2022/07/29 07:04:03;;;;;;;3.92;1.90;;;16.20;99.90;;;;;;4984235;28;20050;-48
2022/07/29 07:06:29;;;;;;;7.13;2.10;;;16.30;99.90;;;;;;4985369;28;20122;-51
2022/07/29 07:08:54;;;;;;;4.70;1.98;;;16.20;99.90;;;;;;4992415;28;20129;-47
2022/07/29 07:11:20;;;;;;;3.45;1.90;;;16.20;99.90;;;;;;4983698;28;20042;-49
2022/07/29 07:13:46;;;;;;;5.00;2.15;;;16.30;99.90;;;;;;4984542;28;20548;-57
2022/07/29 07:16:12;;;;;;;6.43;2.00;;;16.40;99.90;;;;;;4967350;28;20054;-51
2022/07/29 07:18:37;;;;;;;3.95;2.00;;;16.50;99.90;;;;;;4983448;28;20042;-48
2022/07/29 07:21:04;;;;;;;5.57;2.28;;;16.40;99.90;;;;;;4983259;28;20049;-48
2022/07/29 07:23:30;;;;;;;5.65;1.90;;;16.50;99.90;;;;;;4983321;28;20525;-50
2022/07/29 07:25:56;;;;;;;6.97;2.30;;;16.60;99.90;;;;;;4999100;28;20038;-56
2022/07/29 07:28:21;;;;;;;5.13;1.90;;;16.70;99.90;;;;;;5012624;28;20042;-48
2022/07/29 07:30:47;;;;;;;5.28;1.90;;;16.70;99.90;;;;;;5011992;28;20041;-50
2022/07/29 07:33:14;;;;;;;4.25;1.92;;;16.90;99.90;;;;;;5012289;28;20053;-48
2022/07/29 07:35:40;;;;;;;5.15;2.00;;;16.90;99.90;;;;;;5020488;28;20056;-48
2022/07/29 07:38:06;;;;;;;3.45;1.95;;;16.80;99.90;;;;;;5022503;28;20045;-51
2022/07/29 07:40:31;;;;;;;5.22;1.90;;;16.80;99.90;;;;;;5022715;28;20646;-49
2022/07/29 07:42:57;;;;;;;3.75;1.88;;;16.80;99.90;;;;;;5022927;28;20041;-48
2022/07/29 07:45:23;;;;;;;6.25;2.08;;;16.80;99.90;;;;;;5022738;28;20236;-48
2022/07/29 07:47:49;;;;;;;4.30;2.10;;;16.90;99.90;;;;;;5022222;28;20352;-49
2022/07/29 07:50:17;;;;;;;5.30;2.15;;;17.00;99.90;;;;;;5022388;28;20104;-47
2022/07/29 07:52:54;;;;;;;5.38;2.00;;;17.10;99.90;;;;;;5023420;28;20041;-47
2022/07/29 07:55:20;;;;;;;4.93;2.03;;;17.10;99.90;;;;;;5021750;28;20045;-47
2022/07/29 07:57:46;;;;;;;4.18;2.28;;;17.00;99.90;;;;;;5022842;28;20053;-51
2022/07/29 08:00:14;;;;;;;3.35;1.90;;;17.00;99.90;;;;;;5022652;28;20123;-53
2022/07/29 08:02:40;;;;;;;5.55;2.00;;;17.00;99.90;;;;;;5022270;28;20132;-50
2022/07/29 08:05:10;;;;;;;7.25;2.15;;;17.10;99.90;;;;;;5021423;28;20257;-51
2022/07/29 08:07:35;;;;;;;7.72;2.70;;;17.20;99.90;;;;;;4997740;28;20290;-50
2022/07/29 08:10:02;;;;;;;5.88;2.40;;;17.10;99.90;;;;;;4982901;28;20137;-50
2022/07/29 08:12:27;;;;;;;10.85;2.35;;;17.00;99.90;;;;;;4982710;28;20480;-50
2022/07/29 08:14:53;;;;;;;5.18;2.28;;;17.10;99.90;;;;;;4982791;28;20089;-49
2022/07/29 08:17:19;;;;;;;5.65;2.60;;;17.00;99.90;;;;;;4982312;28;20039;-48
2022/07/29 08:19:45;;;;;;;6.28;2.67;;;17.10;99.90;;;;;;4982995;28;20046;-49
2022/07/29 08:22:11;;;;;;;6.88;2.58;;;17.20;99.90;;;;;;4983385;28;20049;-49
2022/07/29 08:24:42;;;;;;;6.47;2.47;;;17.20;99.90;;;;;;4982337;28;20078;-49
2022/07/29 08:27:09;;;;;;;6.10;2.25;;;17.30;99.90;;;;;;4983003;28;20214;-51
2022/07/29 08:29:35;;;;;;;4.85;2.10;;;17.40;99.90;;;;;;4982281;28;20449;-52
2022/07/29 08:32:01;;;;;;;7.30;2.60;;;17.50;99.90;;;;;;5004939;28;20100;-46
2022/07/29 08:34:28;;;;;;;5.72;2.30;;;17.50;99.90;;;;;;5010255;28;21376;-50
2022/07/29 08:36:55;;;;;;;8.88;2.55;;;17.60;99.90;;;;;;5007639;28;20408;-51
2022/07/29 08:39:21;;;;;;;6.13;2.20;;;17.70;99.90;;;;;;5011383;28;20029;-51
2022/07/29 08:41:47;;;;;;;11.63;2.47;;;17.80;99.90;;;;;;5012002;28;20125;-53
2022/07/29 08:44:16;;;;;;;10.02;2.38;;;17.80;99.90;;;;;;5008598;28;20495;-49
2022/07/29 08:46:42;;;;;;;5.50;2.28;;;17.90;99.90;;;;;;5011475;28;20033;-54
2022/07/29 08:49:08;;;;;;;6.00;2.17;;;18.00;99.90;;;;;;5012595;28;20292;-49
2022/07/29 08:51:35;;;;;;;4.47;2.30;;;18.10;99.90;;;;;;5016282;28;20037;-50
2022/07/29 08:54:02;;;;;;;6.28;2.50;;;18.20;99.90;;;;;;5021573;28;20049;-47
2022/07/29 08:56:28;;;;;;;4.78;2.03;;;18.20;99.90;;;;;;5021111;28;20085;-49
2022/07/29 08:58:56;;;;;;;8.10;2.38;;;18.20;99.90;;;;;;5020935;28;20423;-49
2022/07/29 09:01:27;;;;;;;6.32;2.78;;;18.20;99.90;;;;;;5021375;28;20053;-48
2022/07/29 09:03:56;;;;;;;6.05;2.38;;;18.30;99.90;;;;;;5021376;28;20041;-49
2022/07/29 09:06:25;;;;;;;5.95;2.40;;;18.30;99.90;;;;;;5006911;28;20047;-49
2022/07/29 09:08:51;;;;;;;4.35;2.40;;;18.40;99.90;;;;;;5001192;28;20125;-48
2022/07/29 09:11:18;;;;;;;4.00;2.20;;;18.30;99.90;;;;;;5005531;28;20125;-54
2022/07/29 09:13:45;;;;;;;6.28;2.40;;;18.50;99.90;;;;;;4992080;28;20049;-50
2022/07/29 09:16:10;;;;;;;7.43;2.45;;;18.50;99.90;;;;;;5010587;28;20048;-52
2022/07/29 09:18:40;;;;;;;6.43;2.40;;;18.50;99.90;;;;;;5003158;28;20721;-52
2022/07/29 09:24:04;;;;;;;5.80;2.30;;;18.60;99.90;;;;;;5000354;28;20046;-50
2022/07/29 09:26:36;;;;;;;6.80;2.55;;;18.60;99.90;;;;;;5000483;28;20238;-48
2022/07/29 09:29:16;;;;;;;7.65;2.83;;;18.70;99.90;;;;;;4981681;28;20046;-52
2022/07/29 09:31:44;;;;;;;4.40;2.30;;;18.70;99.90;;;;;;4981770;28;20523;-52
2022/07/29 09:34:11;;;;;;;5.15;2.70;;;18.70;99.90;;;;;;4981232;28;20053;-49
2022/07/29 09:36:43;;;;;;;5.78;2.53;;;18.80;99.90;;;;;;4980288;28;20064;-50
2022/07/29 09:39:09;;;;;;;5.43;2.40;;;18.70;99.90;;;;;;4981565;28;20126;-51
2022/07/29 09:41:52;;;;;;;6.68;2.67;;;18.80;99.90;;;;;;4980856;28;20046;-50
2022/07/29 09:44:18;;;;;;;5.65;2.33;;;18.80;99.90;;;;;;4979961;28;20066;-49
2022/07/29 09:47:06;;;;;;;7.70;2.47;;;18.90;99.90;;;;;;4981359;28;20409;-49
2022/07/29 09:49:49;;;;;;;6.40;2.58;;;19.00;99.90;;;;;;4980286;28;20509;-52
2022/07/29 09:52:15;;;;;;;6.10;2.42;;;19.10;99.90;;;;;;4981168;28;20117;-47
2022/07/29 09:54:40;;;;;;;5.90;2.45;;;19.30;99.90;;;;;;4981090;28;20243;-49
2022/07/29 09:57:12;;;;;;;7.75;2.25;;;19.40;99.90;;;;;;4981100;28;20109;-50
2022/07/29 09:59:38;;;;;;;3.97;2.25;;;19.60;99.90;;;;;;4980543;28;20117;-47
2022/07/29 10:02:14;;;;;;;8.25;2.53;;;19.70;99.90;;;;;;4980887;28;20093;-49
2022/07/29 10:04:42;;;;;;;6.90;2.67;;;19.80;99.90;;;;;;4993089;28;20120;-48
2022/07/29 10:07:08;;;;;;;3.85;1.90;;;19.90;99.90;;;;;;4993314;28;20054;-48
2022/07/29 10:09:35;;;;;;;4.68;2.50;;;19.90;99.90;;;;;;4983903;28;20109;-49
2022/07/29 10:12:15;;;;;;;5.72;2.55;;;20.00;99.90;;;;;;4980515;28;20049;-50
2022/07/29 10:14:42;;;;;;;5.25;2.28;;;20.10;99.90;;;;;;4980890;28;20055;-48
2022/07/29 10:17:09;;;;;;;6.25;2.40;;;20.20;99.90;;;;;;4980909;28;20405;-51
2022/07/29 10:19:36;;;;;;;5.70;2.50;;;20.30;99.90;;;;;;4980057;28;20058;-50
2022/07/29 10:22:07;;;;;;;5.18;2.20;;;20.40;99.90;;;;;;4980813;28;20129;-49
2022/07/29 10:24:33;;;;;;;6.05;2.25;;;20.50;99.90;;;;;;4980358;28;20046;-51
2022/07/29 10:27:01;;;;;;;5.88;2.50;;;20.60;99.90;;;;;;4980715;28;20290;-49
2022/07/29 10:29:28;;;;;;;6.63;2.03;;;20.70;99.90;;;;;;4980393;28;20050;-50
2022/07/29 10:32:06;;;;;;;5.30;2.60;;;20.70;99.90;;;;;;4981327;28;20050;-50
2022/07/29 10:34:34;;;;;;;8.32;2.50;;;20.80;99.90;;;;;;4983485;28;20129;-48
2022/07/29 10:37:19;;;;;;;7.30;2.60;;;20.80;99.90;;;;;;4984475;28;20043;-48
2022/07/29 10:39:48;;;;;;;7.38;2.50;;;20.70;99.90;;;;;;4985273;28;20046;-49
2022/07/29 10:42:24;;;;;;;8.25;2.58;;;20.70;99.90;;;;;;4999697;28;20359;-49
2022/07/29 10:44:52;;;;;;;6.22;2.03;;;20.90;99.90;;;;;;5003501;28;20130;-52
2022/07/29 10:47:25;;;;;;;10.50;2.50;;;20.90;99.90;;;;;;5003519;28;20050;-51
2022/07/29 10:50:09;;;;;;;8.55;2.45;;;21.00;99.90;;;;;;5002977;28;20048;-50
2022/07/29 10:52:49;;;;;;;8.60;2.33;;;21.10;99.90;;;;;;5002875;28;20535;-51
2022/07/29 10:55:38;;;;;;;6.38;2.45;;;21.20;99.90;;;;;;5003944;28;20128;-58
2022/07/29 10:58:23;;;;;;;6.75;2.53;;;21.20;99.90;;;;;;5003698;28;20045;-48
2022/07/29 11:00:53;;;;;;;5.95;2.53;;;21.20;99.90;;;;;;5003714;28;20054;-55
2022/07/29 11:03:46;;;;;;;6.57;2.35;;;21.30;99.90;;;;;;5003207;28;20041;-51
2022/07/29 11:06:13;;;;;;;5.68;2.38;;;21.50;99.90;;;;;;4999183;28;20081;-48
2022/07/29 11:08:39;;;;;;;5.25;2.53;;;21.70;99.90;;;;;;4992643;28;20054;-49
2022/07/29 11:11:20;;;;;;;6.60;2.75;;;21.70;99.90;;;;;;4984558;28;20034;-48
2022/07/29 11:13:47;;;;;;;5.13;2.45;;;21.70;99.90;;;;;;4984821;28;20394;-53
2022/07/29 11:16:13;;;;;;;6.75;2.63;;;21.80;99.90;;;;;;4983887;28;20046;-59
2022/07/29 11:19:10;;;;;;;7.03;2.42;;;21.70;99.90;;;;;;4984109;28;20149;-57
2022/07/29 11:21:38;;;;;;;7.35;2.38;;;21.80;99.90;;;;;;4982170;28;20350;-57
2022/07/29 11:24:14;;;;;;;6.43;2.80;;;21.90;99.90;;;;;;4984020;28;20046;-68
2022/07/29 11:26:41;;;;;;;5.45;2.50;;;22.20;99.90;;;;;;4984168;28;20096;-62
2022/07/29 11:29:18;;;;;;;6.05;2.30;;;22.20;99.90;;;;;;5008499;28;20093;-62
2022/07/29 11:31:53;;;;;;;6.70;2.83;;;22.30;99.90;;;;;;5007088;28;20455;-61
2022/07/29 11:34:35;;;;;;;8.43;2.40;;;22.40;99.90;;;;;;5009912;28;20103;-59
2022/07/29 11:37:10;;;;;;;6.97;2.08;;;22.30;99.90;;;;;;5008029;28;20050;-61
2022/07/29 11:39:41;;;;;;;6.93;2.50;;;22.40;99.90;;;;;;5003190;28;20064;-57
2022/07/29 11:42:20;;;;;;;6.32;3.53;;;22.40;99.90;;;;;;5002956;28;20054;-57
2022/07/29 11:45:15;;;;;;;4.40;2.60;;;21.80;99.90;;;;;;5002374;28;20049;-58
2022/07/29 11:47:46;;;;;;;9.02;2.80;;;22.00;99.90;;;;;;5003095;28;20034;-57
2022/07/29 11:50:15;;;;;;;9.60;2.75;;;22.00;99.90;;;;;;5002982;28;20709;-56
2022/07/29 11:52:50;;;;;;;4.53;2.28;;;22.00;99.90;;;;;;5003234;28;20085;-57
2022/07/29 11:55:16;;;;;;;;;;;22.00;99.90;;;;;;5003395;28;20168;-56
2022/07/29 11:57:55;;;;;;;6.90;2.97;;;22.00;99.90;;;;;;5003460;28;20300;-56
2022/07/29 12:00:27;;;;;;;6.68;2.88;;;22.10;99.90;;;;;;5001869;28;20440;-56
2022/07/29 12:02:53;;;;;;;7.93;2.50;;;22.20;99.90;;;;;;5003041;28;20046;-57
2022/07/29 12:05:20;;;;;;;6.60;2.50;;;22.10;99.90;;;;;;5001626;28;20057;-56
2022/07/29 12:07:47;;;;;;;8.60;2.72;;;22.20;99.90;;;;;;4994785;28;20065;-58
2022/07/29 12:10:13;;;;;;;5.88;2.45;;;22.30;99.90;;;;;;4983067;28;20043;-57
2022/07/29 12:12:39;;;;;;;4.32;2.17;;;22.30;99.90;;;;;;4983124;28;20412;-56
2022/07/29 12:15:17;;;;;;;6.20;2.72;;;22.40;99.90;;;;;;4983093;28;20046;-57
2022/07/29 12:17:43;;;;;;;9.98;2.25;;;22.40;99.90;;;;;;4983326;28;20045;-57
2022/07/29 12:20:09;;;;;;;5.57;2.33;;;22.60;99.90;;;;;;4982351;28;20042;-56
2022/07/29 12:22:39;;;;;;;4.75;2.47;;;22.50;99.90;;;;;;4982614;28;20105;-57
2022/07/29 12:25:09;;;;;;;6.57;2.67;;;22.50;99.90;;;;;;4982498;28;20046;-57
2022/07/29 12:27:36;;;;;;;5.22;2.53;;;22.60;99.90;;;;;;4982624;28;20112;-56
2022/07/29 12:30:15;;;;;;;7.35;2.50;;;22.60;99.90;;;;;;4981990;28;20042;-57
2022/07/29 12:32:48;;;;;;;7.45;2.25;;;22.70;99.90;;;;;;4981461;28;20081;-57
2022/07/29 12:35:19;;;;;;;5.73;2.73;;;22.80;99.90;;;;;;4982495;28;20121;-57
2022/07/29 12:37:47;;;;;;;6.32;2.50;;;22.80;99.90;;;;;;4983335;28;20058;-57
2022/07/29 12:40:16;;;;;;;5.85;2.50;;;22.90;99.90;;;;;;4982681;28;20046;-57
2022/07/29 12:43:09;;;;;;;6.65;2.75;;;22.90;99.90;;;;;;4983073;28;20104;-57
2022/07/29 12:45:35;;;;;;;6.55;2.72;;;22.90;99.90;;;;;;4981825;28;20504;-56
2022/07/29 12:48:01;;;;;;;5.82;2.00;;;22.80;99.90;;;;;;4982399;28;20046;-55
2022/07/29 12:50:27;;;;;;;8.30;2.58;;;22.80;99.90;;;;;;4981743;28;20040;-56
2022/07/29 12:52:53;;;;;;;4.82;2.38;;;22.80;99.90;;;;;;4982779;28;20039;-56
2022/07/29 12:55:39;;;;;;;5.18;2.42;;;22.80;99.90;;;;;;4980563;28;20077;-56
2022/07/29 12:58:04;;;;;;;6.60;2.60;;;22.80;99.90;;;;;;4982617;28;20057;-56
2022/07/29 13:00:30;;;;;;;4.18;2.63;;;22.70;99.90;;;;;;4981928;28;20482;-56